Time;durP1;ratioP1;P1;durP2;ratioP2;P2;SDS_P1;SDS_P2;PMS_P1;PMS_P2;Temp;Humidity;BMP_temperature;BMP_pressure;BME280_temperature;BME280_humidity;BME280_pressure;Samples;Min_cycle;Max_cycle;Signal;HPM_P1;HPM_P2
2023/01/12 00:01:40;;;;;;;8.70;2.20;;;7.10;99.90;;;;;;4824906;29;20174;-89
2023/01/12 00:04:06;;;;;;;8.80;1.93;;;7.10;99.90;;;;;;4824855;29;20173;-88
2023/01/12 00:06:33;;;;;;;7.40;1.60;;;7.20;99.90;;;;;;4824687;29;20702;-90
2023/01/12 00:09:02;;;;;;;8.53;1.40;;;7.20;99.90;;;;;;4824854;29;20205;-89
2023/01/12 00:11:28;;;;;;;11.17;1.87;;;7.20;99.90;;;;;;4824526;29;20280;-89
2023/01/12 00:13:54;;;;;;;11.97;3.43;;;7.20;99.90;;;;;;4824493;29;20253;-88
2023/01/12 00:16:36;;;;;;;7.57;1.47;;;7.20;99.90;;;;;;4823847;29;20269;-89
2023/01/12 00:19:17;;;;;;;8.77;1.63;;;7.20;99.90;;;;;;4824693;29;20201;-88
2023/01/12 00:24:29;;;;;;;11.70;2.00;;;7.00;99.90;;;;;;4840924;29;20252;-90
2023/01/12 00:26:56;;;;;;;7.17;1.60;;;7.00;99.90;;;;;;4824668;29;20181;-89
2023/01/12 00:29:23;;;;;;;7.70;1.37;;;7.00;99.90;;;;;;4824577;29;20219;-88
2023/01/12 00:31:49;;;;;;;10.23;1.57;;;7.00;99.90;;;;;;4824504;29;20185;-88
2023/01/12 00:34:16;;;;;;;9.47;1.47;;;7.00;99.90;;;;;;4824377;29;20268;-87
2023/01/12 00:36:42;;;;;;;8.63;1.40;;;7.00;99.90;;;;;;4824576;29;20208;-88
2023/01/12 00:39:09;;;;;;;8.20;1.43;;;7.00;99.90;;;;;;4825010;29;20292;-88
2023/01/12 00:47:10;;;;;;;9.07;1.30;;;7.00;99.90;;;;;;4840627;29;20233;-88
2023/01/12 00:49:37;;;;;;;9.23;1.47;;;7.00;99.90;;;;;;4824509;29;20191;-89
2023/01/12 00:52:04;;;;;;;11.70;1.73;;;7.00;99.90;;;;;;4824100;29;20200;-88
2023/01/12 00:54:31;;;;;;;8.43;1.47;;;7.00;99.90;;;;;;4824421;29;20584;-89
2023/01/12 00:56:57;;;;;;;11.10;1.50;;;7.00;99.90;;;;;;4824490;29;20232;-89
2023/01/12 00:59:23;;;;;;;8.53;1.50;;;7.00;99.90;;;;;;4827415;29;20201;-88
2023/01/12 01:01:48;;;;;;;10.43;1.70;;;7.00;99.90;;;;;;4827855;29;20184;-88
2023/01/12 01:04:14;;;;;;;9.80;1.80;;;7.00;99.90;;;;;;4827318;29;20227;-89
2023/01/12 01:06:40;;;;;;;10.03;1.47;;;7.10;99.90;;;;;;4844455;29;20261;-89
2023/01/12 01:09:06;;;;;;;8.00;1.60;;;7.10;99.90;;;;;;4827759;29;20749;-89
2023/01/12 01:11:33;;;;;;;5.77;1.40;;;7.10;99.90;;;;;;4843995;29;20185;-89
2023/01/12 01:14:00;;;;;;;8.97;1.97;;;7.10;99.90;;;;;;4827492;29;20177;-88
2023/01/12 01:16:25;;;;;;;7.17;1.60;;;7.00;99.90;;;;;;4842409;29;20764;-87
2023/01/12 01:18:51;;;;;;;9.13;1.87;;;7.10;99.90;;;;;;4843883;29;20197;-88
2023/01/12 01:21:17;;;;;;;5.90;1.23;;;7.10;99.90;;;;;;4842456;29;20174;-87
2023/01/12 01:23:44;;;;;;;9.37;1.40;;;7.10;99.90;;;;;;4842068;29;20216;-88
2023/01/12 01:26:16;;;;;;;11.23;1.50;;;7.10;99.90;;;;;;4825130;29;20249;-89
2023/01/12 01:28:43;;;;;;;3.83;1.40;;;7.10;99.90;;;;;;4823993;29;20244;-89
2023/01/12 01:31:15;;;;;;;9.60;1.83;;;7.10;99.90;;;;;;4823878;29;20657;-88
2023/01/12 01:33:42;;;;;;;6.97;1.27;;;7.10;99.90;;;;;;4823422;29;20186;-88
2023/01/12 01:36:08;;;;;;;9.27;1.57;;;7.10;99.90;;;;;;4823872;29;20178;-88
2023/01/12 01:38:35;;;;;;;11.37;1.73;;;7.10;99.90;;;;;;4825125;29;20667;-88
2023/01/12 01:41:02;;;;;;;11.47;1.80;;;7.10;99.90;;;;;;4808875;29;20337;-87
2023/01/12 01:43:48;;;;;;;9.20;1.37;;;7.00;99.90;;;;;;4823905;29;20205;-88
2023/01/12 01:46:20;;;;;;;6.40;1.27;;;7.00;99.90;;;;;;4824521;29;20193;-88
2023/01/12 01:48:46;;;;;;;4.73;1.53;;;7.00;99.90;;;;;;4808705;29;20691;-88
2023/01/12 01:51:16;;;;;;;6.60;1.50;;;7.00;99.90;;;;;;4825312;29;20224;-89
2023/01/12 01:53:44;;;;;;;10.77;1.33;;;6.90;99.90;;;;;;4808549;29;20289;-88
2023/01/12 01:56:15;;;;;;;7.90;1.40;;;6.90;99.90;;;;;;4808389;29;20174;-89
2023/01/12 01:58:51;;;;;;;7.10;1.47;;;7.00;99.90;;;;;;4808626;29;20697;-88
2023/01/12 02:01:17;;;;;;;7.90;1.47;;;6.90;99.90;;;;;;4808138;29;20272;-88
2023/01/12 02:03:45;;;;;;;5.27;1.40;;;6.90;99.90;;;;;;4808057;29;20764;-89
2023/01/12 02:06:13;;;;;;;6.30;1.17;;;6.90;99.90;;;;;;4824580;29;20624;-89
2023/01/12 02:09:18;;;;;;;10.80;1.40;;;6.90;99.90;;;;;;4808060;29;20300;-89
2023/01/12 02:17:21;;;;;;;7.57;1.77;;;6.90;99.90;;;;;;4824451;29;20543;-89
2023/01/12 02:20:08;;;;;;;8.27;1.47;;;6.90;99.90;;;;;;4807949;29;20584;-88
2023/01/12 02:22:55;;;;;;;8.33;1.50;;;6.90;99.90;;;;;;5173966;24;20240;-86
2023/01/12 02:25:59;;;;;;;9.13;1.50;;;6.90;99.90;;;;;;4828674;29;20217;-87
2023/01/12 02:28:34;;;;;;;7.80;1.37;;;7.00;99.90;;;;;;4828876;29;20192;-86
2023/01/12 02:31:30;;;;;;;9.17;1.93;;;7.00;99.90;;;;;;4828708;29;20596;-84
2023/01/12 02:34:27;;;;;;;5.80;1.37;;;7.00;99.90;;;;;;4828995;29;20192;-94
2023/01/12 02:37:16;;;;;;;3.50;0.90;;;7.00;99.90;;;;;;4828809;29;20277;-90
2023/01/12 02:39:49;;;;;;;6.47;1.27;;;7.10;99.90;;;;;;4829266;29;20189;-84
2023/01/12 02:42:49;;;;;;;6.43;1.60;;;7.10;99.90;;;;;;4829143;29;20216;-85
2023/01/12 02:45:22;;;;;;;4.47;1.00;;;7.10;99.90;;;;;;4827184;29;20261;-85
2023/01/12 02:47:53;;;;;;;7.50;1.37;;;7.20;99.90;;;;;;4863756;29;20177;-84
2023/01/12 02:50:31;;;;;;;3.90;1.00;;;7.20;99.90;;;;;;4846836;29;20938;-86
2023/01/12 02:53:15;;;;;;;4.83;1.20;;;7.20;99.90;;;;;;4846731;29;20189;-85
2023/01/12 02:55:42;;;;;;;7.80;1.60;;;7.20;99.90;;;;;;4846610;29;20276;-84
2023/01/12 02:58:11;;;;;;;8.50;1.20;;;7.20;99.90;;;;;;4862987;29;20272;-87
2023/01/12 03:00:38;;;;;;;5.37;1.37;;;7.20;99.90;;;;;;4845527;29;20550;-84
2023/01/12 03:03:05;;;;;;;5.23;1.10;;;7.10;99.90;;;;;;4862891;29;20259;-86
2023/01/12 03:05:31;;;;;;;5.67;1.20;;;7.10;99.90;;;;;;4846395;29;20639;-84
2023/01/12 03:08:03;;;;;;;6.60;1.13;;;7.10;99.90;;;;;;4846524;29;20192;-88
2023/01/12 03:11:01;;;;;;;4.53;1.27;;;7.10;99.90;;;;;;4846055;29;20189;-85
2023/01/12 03:13:28;;;;;;;6.97;1.20;;;7.10;99.90;;;;;;4821678;29;20679;-86
2023/01/12 03:15:56;;;;;;;4.73;0.83;;;7.10;99.90;;;;;;4862612;29;20184;-85
2023/01/12 03:18:33;;;;;;;10.43;1.33;;;7.10;99.90;;;;;;4846136;29;20424;-84
2023/01/12 03:21:07;;;;;;;4.23;1.00;;;7.10;99.90;;;;;;4846152;29;20268;-86
2023/01/12 03:23:43;;;;;;;10.90;1.37;;;7.10;99.90;;;;;;4872950;29;20571;-86
2023/01/12 03:26:11;;;;;;;5.13;1.13;;;7.10;99.90;;;;;;4880032;29;20611;-89
2023/01/12 03:28:40;;;;;;;10.47;1.20;;;7.10;99.90;;;;;;4880026;29;20195;-86
2023/01/12 03:31:12;;;;;;;8.27;1.13;;;7.10;99.90;;;;;;4879674;29;20693;-85
2023/01/12 03:33:40;;;;;;;5.07;1.13;;;7.10;99.90;;;;;;4878367;29;20187;-85
2023/01/12 03:36:19;;;;;;;4.10;1.50;;;7.20;99.90;;;;;;4879852;29;20184;-83
2023/01/12 03:39:08;;;;;;;7.70;1.30;;;7.30;99.90;;;;;;4881124;29;20186;-87
2023/01/12 03:41:37;;;;;;;6.40;1.00;;;7.30;99.90;;;;;;4880037;29;20188;-84
2023/01/12 03:44:06;;;;;;;5.00;1.23;;;7.30;99.90;;;;;;4879755;29;20199;-85
2023/01/12 03:46:41;;;;;;;5.03;1.00;;;7.30;99.90;;;;;;4880465;29;20271;-87
2023/01/12 03:49:18;;;;;;;3.37;0.90;;;7.30;99.90;;;;;;4879756;29;20243;-89
2023/01/12 03:51:47;;;;;;;4.73;0.83;;;7.30;99.90;;;;;;4880822;29;20172;-87
2023/01/12 03:54:14;;;;;;;4.67;0.80;;;7.40;99.90;;;;;;4879556;29;20187;-87
2023/01/12 03:56:43;;;;;;;2.07;0.70;;;7.50;99.90;;;;;;4879917;29;20556;-86
2023/01/12 03:59:09;;;;;;;5.03;1.17;;;7.40;99.90;;;;;;4880166;29;20192;-87
2023/01/12 04:01:35;;;;;;;7.23;1.17;;;7.40;99.90;;;;;;4879947;29;20184;-87
2023/01/12 04:04:01;;;;;;;6.43;1.40;;;7.40;99.90;;;;;;4879777;29;20582;-85
2023/01/12 04:06:27;;;;;;;6.73;0.93;;;7.40;99.90;;;;;;4879901;29;20184;-85
2023/01/12 04:08:53;;;;;;;4.73;0.83;;;7.40;99.90;;;;;;4879498;29;20183;-85
2023/01/12 04:14:03;;;;;;;4.10;1.00;;;7.50;99.90;;;;;;4880966;29;20251;-87
2023/01/12 04:16:29;;;;;;;4.13;0.90;;;7.50;99.90;;;;;;4880365;29;20650;-85
2023/01/12 04:18:54;;;;;;;4.33;1.00;;;7.50;99.90;;;;;;4879403;29;20188;-85
2023/01/12 04:24:06;;;;;;;3.70;0.90;;;7.50;99.90;;;;;;4880677;29;20255;-86
2023/01/12 04:26:32;;;;;;;4.17;0.83;;;7.50;99.90;;;;;;4879282;29;20236;-87
2023/01/12 04:28:57;;;;;;;3.40;1.00;;;7.50;99.90;;;;;;4879099;29;20184;-85
2023/01/12 04:31:23;;;;;;;3.53;0.87;;;7.50;99.90;;;;;;4880281;29;20199;-87
2023/01/12 04:33:49;;;;;;;5.60;0.90;;;7.60;99.90;;;;;;4880036;29;20180;-85
2023/01/12 04:36:14;;;;;;;6.10;1.07;;;7.60;99.90;;;;;;4879035;29;20183;-84
2023/01/12 04:38:40;;;;;;;2.27;0.80;;;7.50;99.90;;;;;;4880175;29;20180;-88
2023/01/12 04:41:07;;;;;;;3.97;1.10;;;7.50;99.90;;;;;;4880553;29;20599;-84
2023/01/12 04:43:33;;;;;;;6.83;1.17;;;7.50;99.90;;;;;;4880475;29;20262;-86
2023/01/12 04:46:05;;;;;;;3.07;0.70;;;7.50;99.90;;;;;;4864641;29;20223;-89
2023/01/12 04:48:31;;;;;;;3.97;1.20;;;7.50;99.90;;;;;;4860793;29;20183;-87
2023/01/12 04:50:58;;;;;;;6.23;1.17;;;7.50;99.90;;;;;;4861644;29;20185;-86
2023/01/12 04:53:25;;;;;;;2.27;0.70;;;7.50;99.90;;;;;;4861741;29;20172;-84
2023/01/12 04:55:50;;;;;;;6.13;1.07;;;7.50;99.90;;;;;;4861666;29;20496;-88
2023/01/12 04:58:16;;;;;;;5.13;0.87;;;7.40;99.90;;;;;;4860281;29;20220;-86
2023/01/12 05:00:42;;;;;;;2.20;0.53;;;7.40;99.90;;;;;;4861453;29;20173;-86
2023/01/12 05:03:11;;;;;;;6.73;1.33;;;7.40;99.90;;;;;;4860179;29;20616;-86
2023/01/12 05:05:36;;;;;;;3.37;0.70;;;7.30;99.90;;;;;;4860242;29;20195;-88
2023/01/12 05:10:49;;;;;;;4.57;1.07;;;7.30;99.90;;;;;;4861634;29;20187;-86
2023/01/12 05:13:15;;;;;;;4.27;1.13;;;7.30;99.90;;;;;;4859958;29;20185;-86
2023/01/12 05:15:41;;;;;;;5.40;0.90;;;7.30;99.90;;;;;;4871666;29;20195;-84
2023/01/12 05:18:06;;;;;;;2.93;0.77;;;7.30;99.90;;;;;;4878480;29;20651;-87
2023/01/12 05:20:32;;;;;;;4.27;0.80;;;7.40;99.90;;;;;;4878773;29;20596;-87
2023/01/12 05:22:58;;;;;;;6.23;0.87;;;7.30;99.90;;;;;;4878520;29;20234;-85
2023/01/12 05:25:28;;;;;;;3.70;1.00;;;7.30;99.90;;;;;;4878728;29;20184;-86
2023/01/12 05:27:56;;;;;;;3.57;0.97;;;7.30;99.90;;;;;;4880338;29;20181;-87
2023/01/12 05:30:22;;;;;;;5.37;1.47;;;7.30;99.90;;;;;;4879760;29;20263;-86
2023/01/12 05:32:48;;;;;;;5.00;1.47;;;7.30;99.90;;;;;;4878444;29;20183;-86
2023/01/12 05:35:14;;;;;;;4.73;1.00;;;7.30;99.90;;;;;;4880021;29;20186;-86
2023/01/12 05:37:39;;;;;;;6.07;1.63;;;7.40;99.90;;;;;;4880104;29;20203;-88
2023/01/12 05:40:06;;;;;;;5.17;1.20;;;7.40;99.90;;;;;;4892000;29;20187;-84
2023/01/12 05:45:15;;;;;;;4.37;1.10;;;7.40;99.90;;;;;;4891723;29;20272;-85
2023/01/12 05:47:41;;;;;;;5.33;1.13;;;7.40;99.90;;;;;;4882250;29;20218;-94
2023/01/12 05:50:07;;;;;;;6.37;1.13;;;7.40;99.90;;;;;;4890056;29;20610;-88
2023/01/12 05:52:33;;;;;;;5.83;1.00;;;7.50;99.90;;;;;;4883192;29;20589;-86
2023/01/12 05:54:59;;;;;;;4.93;1.13;;;7.40;99.90;;;;;;4882346;29;20213;-90
2023/01/12 05:57:24;;;;;;;4.67;0.90;;;7.50;99.90;;;;;;4882910;29;20200;-85
2023/01/12 05:59:50;;;;;;;3.73;1.33;;;7.50;99.90;;;;;;4881579;29;20191;-86
2023/01/12 06:02:16;;;;;;;6.77;1.30;;;7.50;99.90;;;;;;4882707;29;20179;-92
2023/01/12 06:04:42;;;;;;;5.13;1.10;;;7.60;99.90;;;;;;4882093;29;20228;-86
2023/01/12 06:07:13;;;;;;;6.13;1.20;;;7.60;99.90;;;;;;4881759;29;20242;-93
2023/01/12 06:09:39;;;;;;;4.10;0.93;;;7.50;99.90;;;;;;4881607;29;20184;-91
2023/01/12 06:14:49;;;;;;;8.80;1.00;;;7.60;99.90;;;;;;4882832;29;20646;-86
2023/01/12 06:17:15;;;;;;;5.73;1.30;;;7.60;99.90;;;;;;4881130;29;20225;-91
2023/01/12 06:19:40;;;;;;;3.07;0.80;;;7.60;99.90;;;;;;4882728;29;20516;-85
2023/01/12 06:22:07;;;;;;;5.87;1.10;;;7.60;99.90;;;;;;4881310;29;20719;-86
2023/01/12 06:24:33;;;;;;;8.23;1.40;;;7.60;99.90;;;;;;4881323;29;20236;-85
2023/01/12 06:26:59;;;;;;;5.70;1.03;;;7.60;99.90;;;;;;4881242;29;20188;-86
2023/01/12 06:29:24;;;;;;;5.47;0.90;;;7.70;99.90;;;;;;4881354;29;20188;-87
2023/01/12 06:31:50;;;;;;;4.20;1.00;;;7.70;99.90;;;;;;4881191;29;20184;-87
2023/01/12 06:34:16;;;;;;;6.87;1.10;;;7.70;99.90;;;;;;4881517;29;20627;-86
2023/01/12 06:36:41;;;;;;;3.83;0.90;;;7.70;99.90;;;;;;4882404;29;20599;-89
2023/01/12 06:39:07;;;;;;;3.10;0.90;;;7.70;99.90;;;;;;4880937;29;20585;-94
2023/01/12 06:44:18;;;;;;;7.33;0.97;;;7.80;99.90;;;;;;4882403;29;20232;-86
2023/01/12 06:46:45;;;;;;;6.07;1.00;;;7.80;99.90;;;;;;4882532;29;20564;-90
2023/01/12 06:49:10;;;;;;;2.13;0.90;;;7.80;99.90;;;;;;4881245;29;20600;-86
2023/01/12 06:51:36;;;;;;;3.10;1.07;;;7.90;99.90;;;;;;4881133;29;20278;-86
2023/01/12 06:54:02;;;;;;;6.90;1.13;;;7.90;99.90;;;;;;4880637;29;20231;-84
2023/01/12 06:56:28;;;;;;;4.90;0.80;;;7.90;99.90;;;;;;4880347;29;20220;-90
2023/01/12 06:58:53;;;;;;;4.30;0.90;;;7.80;99.90;;;;;;4880949;29;20193;-88
2023/01/12 07:01:19;;;;;;;2.13;0.70;;;7.70;99.90;;;;;;4880455;29;20200;-91
2023/01/12 07:03:45;;;;;;;5.63;1.13;;;7.80;99.90;;;;;;4880724;29;20281;-88
2023/01/12 07:06:11;;;;;;;2.63;0.70;;;7.80;99.90;;;;;;4881574;29;20589;-87
2023/01/12 07:08:37;;;;;;;4.17;1.10;;;7.80;99.90;;;;;;4880680;29;20184;-86
2023/01/12 07:11:06;;;;;;;2.07;0.70;;;7.80;99.90;;;;;;4881741;29;20183;-87
2023/01/12 07:13:32;;;;;;;4.43;0.87;;;7.80;99.90;;;;;;4880448;29;20686;-88
2023/01/12 07:15:59;;;;;;;3.10;0.83;;;7.90;99.90;;;;;;4880461;29;20188;-87
2023/01/12 07:18:26;;;;;;;2.67;0.73;;;7.90;99.90;;;;;;4880052;29;20219;-86
2023/01/12 07:20:53;;;;;;;4.40;0.80;;;7.90;99.90;;;;;;4880425;29;20274;-84
2023/01/12 07:23:19;;;;;;;3.87;0.60;;;7.90;99.90;;;;;;4856789;29;20645;-86
2023/01/12 07:25:44;;;;;;;3.73;0.77;;;7.90;99.90;;;;;;4846367;29;20180;-85
2023/01/12 07:28:10;;;;;;;4.43;0.93;;;7.90;99.90;;;;;;4862975;29;20185;-85
2023/01/12 07:30:36;;;;;;;5.17;1.10;;;8.00;99.90;;;;;;4846397;29;20287;-84
2023/01/12 07:33:12;;;;;;;3.77;1.20;;;8.00;99.90;;;;;;4845128;29;20275;-84
2023/01/12 07:35:39;;;;;;;5.07;1.40;;;8.10;99.90;;;;;;4846108;29;20248;-88
2023/01/12 07:38:05;;;;;;;4.23;1.43;;;8.00;99.90;;;;;;4862670;29;20201;-86
2023/01/12 07:40:31;;;;;;;9.70;1.97;;;8.10;99.90;;;;;;4845748;29;20651;-88
2023/01/12 07:42:58;;;;;;;5.30;1.10;;;8.00;99.90;;;;;;4845846;29;20192;-85
2023/01/12 07:45:25;;;;;;;6.87;1.40;;;8.00;99.90;;;;;;4862557;29;20185;-86
2023/01/12 07:47:53;;;;;;;2.87;1.10;;;8.10;99.90;;;;;;4845532;29;20185;-92
2023/01/12 07:50:19;;;;;;;5.60;1.60;;;8.00;99.90;;;;;;4862949;29;20481;-91
2023/01/12 07:52:44;;;;;;;7.83;1.67;;;8.10;99.90;;;;;;4845797;29;20624;-84
2023/01/12 07:55:10;;;;;;;6.10;1.53;;;8.20;99.90;;;;;;4862377;29;20228;-86
2023/01/12 07:57:36;;;;;;;6.37;1.27;;;8.10;99.90;;;;;;4845505;29;20220;-88
2023/01/12 08:00:04;;;;;;;3.97;1.00;;;8.20;99.90;;;;;;4862323;29;20177;-88
2023/01/12 08:02:30;;;;;;;6.80;1.30;;;8.20;99.90;;;;;;4845372;29;20184;-86
2023/01/12 08:04:56;;;;;;;3.17;1.00;;;8.20;99.90;;;;;;4862423;29;20189;-87
2023/01/12 08:07:22;;;;;;;2.67;1.13;;;8.20;99.90;;;;;;4845054;29;20575;-89
2023/01/12 08:09:48;;;;;;;8.63;1.50;;;8.20;99.90;;;;;;4845836;29;20194;-86
2023/01/12 08:12:16;;;;;;;3.10;1.03;;;8.20;99.90;;;;;;4846156;29;20184;-89
2023/01/12 08:14:42;;;;;;;3.77;1.30;;;8.30;99.90;;;;;;4862189;29;20195;-86
2023/01/12 08:17:19;;;;;;;3.43;0.83;;;8.30;99.90;;;;;;4845537;29;20212;-86
2023/01/12 08:20:03;;;;;;;7.20;1.47;;;8.30;99.90;;;;;;4845652;29;20203;-88
2023/01/12 08:22:35;;;;;;;3.40;1.07;;;8.30;99.90;;;;;;4855962;29;20238;-92
2023/01/12 08:25:12;;;;;;;6.60;1.10;;;8.30;99.90;;;;;;4879935;29;20172;-89
2023/01/12 08:27:43;;;;;;;1.73;0.77;;;8.30;99.90;;;;;;4879721;29;20175;-89
2023/01/12 08:30:11;;;;;;;3.20;0.90;;;8.30;99.90;;;;;;4879497;29;20184;-91
2023/01/12 08:32:37;;;;;;;6.50;0.93;;;8.20;99.90;;;;;;4879209;29;20187;-84
2023/01/12 08:35:04;;;;;;;3.23;1.03;;;8.20;99.90;;;;;;4879525;29;20195;-91
2023/01/12 08:37:32;;;;;;;5.63;1.40;;;8.20;99.90;;;;;;4880806;29;20264;-88
2023/01/12 08:39:58;;;;;;;3.43;1.00;;;8.20;99.90;;;;;;4879745;29;20176;-87
2023/01/12 08:42:26;;;;;;;5.77;1.30;;;8.10;99.90;;;;;;4879330;29;20188;-86
2023/01/12 08:44:52;;;;;;;3.73;0.80;;;8.20;99.90;;;;;;4879462;29;20188;-88
2023/01/12 08:47:26;;;;;;;5.30;1.13;;;8.20;99.90;;;;;;4880459;29;20188;-94
2023/01/12 08:49:53;;;;;;;4.07;0.90;;;8.20;99.90;;;;;;4879600;29;20690;-90
2023/01/12 08:52:19;;;;;;;3.87;0.87;;;8.20;99.90;;;;;;4880898;29;20191;-88
2023/01/12 08:54:45;;;;;;;4.77;0.93;;;8.20;99.90;;;;;;4879673;29;20188;-88
2023/01/12 08:57:11;;;;;;;4.90;0.87;;;8.20;99.90;;;;;;4879457;29;20216;-90
2023/01/12 08:59:37;;;;;;;2.50;0.80;;;8.20;99.90;;;;;;4879611;29;20235;-90
2023/01/12 09:02:03;;;;;;;1.87;0.77;;;8.20;99.90;;;;;;4880775;29;20187;-92
2023/01/12 09:04:29;;;;;;;4.67;1.10;;;8.20;99.90;;;;;;4879487;29;20212;-87
2023/01/12 09:06:55;;;;;;;3.63;0.80;;;8.20;99.90;;;;;;4879302;29;20259;-90
2023/01/12 09:09:21;;;;;;;2.77;0.50;;;8.20;99.90;;;;;;4879541;29;20207;-88
2023/01/12 09:11:49;;;;;;;2.93;1.00;;;8.20;99.90;;;;;;4879191;29;20235;-88
2023/01/12 09:14:16;;;;;;;1.83;0.70;;;8.20;99.90;;;;;;4879509;29;20183;-91
2023/01/12 09:16:42;;;;;;;1.10;0.60;;;8.20;99.90;;;;;;4879342;29;20302;-86
2023/01/12 09:19:08;;;;;;;2.20;0.57;;;8.20;99.90;;;;;;4881390;29;20291;-86
2023/01/12 09:21:37;;;;;;;3.73;0.70;;;8.30;99.90;;;;;;4882701;29;20180;-87
2023/01/12 09:24:03;;;;;;;2.30;0.53;;;8.20;99.90;;;;;;4883090;29;20560;-90
2023/01/12 09:26:35;;;;;;;2.87;0.70;;;8.20;99.90;;;;;;4883413;29;20616;-87
2023/01/12 09:29:03;;;;;;;2.97;0.73;;;8.30;99.90;;;;;;4882565;29;20195;-87
2023/01/12 09:31:30;;;;;;;1.50;0.70;;;8.30;99.90;;;;;;4882940;29;20191;-91
2023/01/12 09:33:56;;;;;;;1.60;0.40;;;8.30;99.90;;;;;;4883324;29;20184;-92
2023/01/12 09:36:25;;;;;;;1.20;0.60;;;8.30;99.90;;;;;;4882978;29;20211;-88
2023/01/12 09:38:51;;;;;;;10.60;0.60;;;8.40;99.90;;;;;;4884125;29;20184;-89
2023/01/12 09:47:12;;;;;;;2.57;0.57;;;8.50;99.90;;;;;;4883723;29;20304;-90
2023/01/12 09:49:43;;;;;;;0.53;0.40;;;8.50;99.90;;;;;;4883046;29;20178;-91
2023/01/12 09:52:26;;;;;;;0.93;0.40;;;8.60;99.90;;;;;;4882882;29;20205;-89
2023/01/12 09:54:52;;;;;;;1.27;0.40;;;8.70;99.90;;;;;;4883211;29;20173;-91
2023/01/12 09:57:42;;;;;;;3.17;0.77;;;8.60;99.90;;;;;;4882428;29;20208;-92
2023/01/12 10:00:14;;;;;;;1.43;0.63;;;8.70;99.90;;;;;;4882761;29;20554;-87
2023/01/12 10:02:44;;;;;;;0.40;0.30;;;8.70;99.90;;;;;;4882452;29;20176;-88
2023/01/12 10:05:33;;;;;;;2.17;0.40;;;8.70;99.90;;;;;;4882945;29;20180;-89
2023/01/12 10:07:59;;;;;;;2.70;1.33;;;8.70;99.90;;;;;;4883302;29;20176;-93
2023/01/12 10:10:24;;;;;;;1.67;0.57;;;8.80;99.90;;;;;;4882373;29;20187;-88
2023/01/12 10:12:56;;;;;;;1.77;0.43;;;8.80;99.90;;;;;;4882302;29;20555;-90
2023/01/12 10:15:43;;;;;;;2.10;0.60;;;8.80;99.90;;;;;;4882174;29;20557;-90
2023/01/12 10:18:18;;;;;;;0.70;0.40;;;8.80;99.90;;;;;;4882334;29;20208;-90
2023/01/12 10:20:44;;;;;;;1.23;0.40;;;8.80;99.90;;;;;;4882325;29;20179;-91
2023/01/12 10:23:11;;;;;;;1.20;0.60;;;8.90;99.90;;;;;;4881777;29;20236;-91
2023/01/12 10:25:40;;;;;;;1.05;0.35;;;9.00;99.90;;;;;;4882562;29;20187;-90
2023/01/12 10:28:11;;;;;;;2.53;0.40;;;9.00;99.90;;;;;;4882592;29;20188;-92
2023/01/12 10:30:39;;;;;;;2.92;0.38;;;9.00;99.90;;;;;;4882522;29;20267;-93
2023/01/12 10:33:12;;;;;;;1.40;0.30;;;9.00;99.90;;;;;;4882141;29;20226;-93
2023/01/12 10:36:02;;;;;;;3.13;0.60;;;9.00;99.90;;;;;;4882772;29;20191;-91
2023/01/12 10:38:30;;;;;;;0.57;0.20;;;9.00;99.90;;;;;;4882899;29;20694;-88
2023/01/12 10:41:13;;;;;;;0.97;0.30;;;9.00;99.90;;;;;;4882610;29;20186;-90
2023/01/12 10:43:41;;;;;;;0.53;0.30;;;9.00;99.90;;;;;;4882757;29;20273;-87
2023/01/12 10:46:15;;;;;;;1.80;0.47;;;9.00;99.90;;;;;;4869784;29;20212;-87
2023/01/12 10:48:50;;;;;;;0.47;0.30;;;9.10;99.90;;;;;;4864786;29;20176;-90
2023/01/12 10:51:28;;;;;;;0.20;0.20;;;9.00;99.90;;;;;;4863256;29;20620;-90
2023/01/12 10:53:56;;;;;;;0.27;0.20;;;9.10;99.90;;;;;;4863570;29;20523;-90
2023/01/12 10:56:43;;;;;;;0.33;0.20;;;9.00;99.90;;;;;;4863435;29;20617;-91
2023/01/12 10:59:12;;;;;;;0.63;0.30;;;9.00;99.90;;;;;;4864538;29;20258;-91
2023/01/12 11:02:07;;;;;;;0.20;0.20;;;9.00;99.90;;;;;;4864068;29;20607;-90
2023/01/12 11:04:46;;;;;;;0.83;0.27;;;9.00;99.90;;;;;;4863072;29;20253;-90
2023/01/12 11:07:25;;;;;;;0.40;0.40;;;9.00;99.90;;;;;;4864521;29;20209;-90
2023/01/12 11:09:53;;;;;;;1.83;0.40;;;9.00;99.90;;;;;;4863090;29;20275;-90
2023/01/12 11:12:18;;;;;;;0.50;0.30;;;9.00;99.90;;;;;;4863043;29;20181;-92
2023/01/12 11:15:03;;;;;;;0.80;0.20;;;9.00;99.90;;;;;;4866284;29;20274;-88
2023/01/12 11:20:38;;;;;;;0.63;0.20;;;9.10;99.90;;;;;;4882548;29;20211;-87
2023/01/12 11:23:38;;;;;;;0.77;0.23;;;9.10;99.90;;;;;;4881175;29;20250;-89
2023/01/12 11:26:16;;;;;;;0.37;0.30;;;9.20;99.90;;;;;;4851648;29;20652;-89
2023/01/12 11:28:47;;;;;;;0.28;0.22;;;9.20;99.90;;;;;;4881401;29;20180;-93
2023/01/12 11:31:37;;;;;;;1.47;0.30;;;9.20;99.90;;;;;;4880802;29;20681;-93
2023/01/12 11:34:17;;;;;;;0.30;0.30;;;9.20;99.90;;;;;;4880785;29;20279;-91
2023/01/12 11:36:49;;;;;;;0.63;0.20;;;9.20;99.90;;;;;;4881339;29;20593;-89
2023/01/12 11:39:23;;;;;;;0.45;0.20;;;9.20;99.90;;;;;;4881573;29;20295;-90
2023/01/12 11:44:49;;;;;;;0.40;0.20;;;9.30;99.90;;;;;;4882705;29;20520;-92
2023/01/12 11:47:42;;;;;;;0.45;0.30;;;9.30;99.90;;;;;;4881157;29;20190;-89
2023/01/12 11:50:23;;;;;;;1.70;0.30;;;9.30;99.90;;;;;;4881551;29;20553;-90
2023/01/12 11:52:50;;;;;;;0.82;0.30;;;9.30;99.90;;;;;;4880950;29;20176;-88
2023/01/12 11:55:26;;;;;;;0.37;0.30;;;9.40;99.90;;;;;;4882070;29;20299;-90
2023/01/12 11:58:32;;;;;;;0.65;0.30;;;9.30;99.90;;;;;;4880963;29;20223;-89
2023/01/12 12:01:19;;;;;;;0.10;0.10;;;9.30;99.90;;;;;;4880010;29;20662;-93
2023/01/12 12:04:00;;;;;;;0.10;0.10;;;9.20;99.90;;;;;;4880461;29;20674;-88
2023/01/12 12:06:49;;;;;;;0.53;0.27;;;9.20;99.90;;;;;;4880981;29;20208;-93
2023/01/12 12:09:32;;;;;;;0.40;0.33;;;9.10;99.90;;;;;;4880599;29;20183;-90
2023/01/12 12:12:12;;;;;;;1.93;0.33;;;9.10;99.90;;;;;;4880277;29;20259;-90
2023/01/12 12:15:01;;;;;;;0.20;0.20;;;9.00;99.90;;;;;;4866578;29;20180;-92
2023/01/12 12:17:56;;;;;;;0.93;0.30;;;9.00;99.90;;;;;;4880814;29;20306;-91
2023/01/12 12:20:42;;;;;;;1.40;0.30;;;9.00;99.90;;;;;;4880536;29;20263;-91
2023/01/12 12:23:24;;;;;;;0.57;0.30;;;9.00;99.90;;;;;;4871233;29;20235;-88
2023/01/12 12:26:08;;;;;;;0.30;0.30;;;9.00;99.90;;;;;;4864586;29;20176;-89
2023/01/12 12:29:05;;;;;;;1.80;0.40;;;9.10;99.90;;;;;;4865257;29;20195;-89
2023/01/12 12:32:08;;;;;;;0.63;0.33;;;9.10;99.90;;;;;;4864877;29;20188;-90
2023/01/12 12:34:54;;;;;;;0.70;0.20;;;9.10;99.90;;;;;;4881493;29;20171;-91
2023/01/12 12:37:31;;;;;;;0.70;0.20;;;9.10;99.90;;;;;;4864346;29;20219;-89
2023/01/12 12:40:23;;;;;;;0.20;0.20;;;9.10;99.90;;;;;;4864613;29;20176;-92
2023/01/12 12:46:12;;;;;;;0.97;0.27;;;9.10;99.90;;;;;;4869904;29;20708;-91
2023/01/12 12:48:43;;;;;;;1.23;0.20;;;9.10;99.90;;;;;;4862483;29;20605;-90
2023/01/12 12:51:12;;;;;;;0.53;0.30;;;9.10;99.90;;;;;;4846406;29;20248;-90
2023/01/12 12:53:45;;;;;;;0.60;0.20;;;9.10;99.90;;;;;;4846478;29;20193;-89
2023/01/12 12:56:14;;;;;;;0.30;0.30;;;9.10;99.90;;;;;;4850099;29;20684;-91
2023/01/12 12:58:44;;;;;;;0.60;0.30;;;9.10;99.90;;;;;;4849685;29;20234;-92
2023/01/12 13:01:30;;;;;;;1.00;0.40;;;9.10;99.90;;;;;;4849320;29;20684;-89
2023/01/12 13:04:01;;;;;;;0.80;0.35;;;9.10;99.90;;;;;;4834365;29;20203;-91
2023/01/12 13:06:35;;;;;;;0.47;0.33;;;9.20;99.90;;;;;;4849324;29;20199;-93
2023/01/12 13:09:16;;;;;;;0.20;0.20;;;9.20;99.90;;;;;;4849783;29;20239;-93
2023/01/12 13:12:08;;;;;;;0.63;0.40;;;9.20;99.90;;;;;;4866083;29;20508;-89
2023/01/12 13:14:39;;;;;;;0.40;0.30;;;9.20;99.90;;;;;;4850127;29;20185;-91
2023/01/12 13:17:25;;;;;;;0.20;0.20;;;9.20;99.90;;;;;;4849333;29;20220;-91
2023/01/12 13:20:00;;;;;;;0.35;0.30;;;9.20;99.90;;;;;;4834200;29;20197;-88
2023/01/12 13:22:38;;;;;;;1.65;0.20;;;9.30;99.90;;;;;;4871808;29;20234;-89
2023/01/12 13:25:18;;;;;;;0.30;0.30;;;9.30;99.90;;;;;;4884725;29;20220;-91
2023/01/12 13:27:59;;;;;;;0.38;0.28;;;9.30;99.90;;;;;;4867871;29;20198;-90
2023/01/12 13:30:28;;;;;;;0.33;0.30;;;9.30;99.90;;;;;;4867798;29;20672;-89
2023/01/12 13:32:58;;;;;;;0.52;0.25;;;9.30;99.90;;;;;;4884593;29;20672;-91
2023/01/12 13:35:32;;;;;;;0.20;0.20;;;9.30;99.90;;;;;;4868492;29;20222;-91
2023/01/12 13:38:35;;;;;;;0.33;0.30;;;9.30;99.90;;;;;;4867117;29;20215;-88
2023/01/12 13:41:13;;;;;;;1.40;0.30;;;9.30;99.90;;;;;;4845573;29;20255;-89
2023/01/12 13:43:59;;;;;;;0.77;0.28;;;9.30;99.90;;;;;;4884318;29;20233;-90
2023/01/12 13:46:41;;;;;;;1.90;0.30;;;9.30;99.90;;;;;;4852417;29;20203;-88
2023/01/12 13:49:31;;;;;;;0.27;0.27;;;9.30;99.90;;;;;;4848666;29;20279;-89
2023/01/12 13:52:18;;;;;;;0.30;0.30;;;9.30;99.90;;;;;;4848801;29;20526;-89
2023/01/12 13:54:49;;;;;;;2.63;0.40;;;9.30;99.90;;;;;;4848829;29;20223;-87
2023/01/12 13:57:23;;;;;;;0.50;0.30;;;9.30;99.90;;;;;;4848135;29;20212;-89
2023/01/12 14:00:09;;;;;;;0.20;0.20;;;9.30;99.90;;;;;;4849403;29;20264;-90
2023/01/12 14:02:37;;;;;;;0.55;0.20;;;9.40;99.90;;;;;;4848285;29;20185;-89
2023/01/12 14:05:16;;;;;;;0.23;0.23;;;9.40;99.90;;;;;;4846918;29;20212;-90